aviador You're here:

KCUT Decoded Metar

CUSTER in SD, USA
Report Time2018-04-22 13:53:00
UTC Time2018-04-22 14:20:02
Flight Rules vfr VFR
WindCalm
Visibility9999 m
Phenomena:N/A
Clouds:N/A
Expected CloudBase > 1,200 ft AGL from Temp-Dew spread
CeilingNone
Temp05°C (ISA +1)
Dew Point02°C (81% RH)
AAT3.3°C
QNH1022 hPa
Density Alt5,614 ft
Elevation5,659 ft
Report Wrong Elevation
Raw Report
KCUT 221353Z AUTO 00000KT 10SM CLR 05/02 A3017 RMK AO2 SLP217
T00500017 $=

Extra information for KCUT:More info

Metar Taf Metar & Taf Last 4 Metars F.Rules Stats Wind Profile Meteogram Temp Stats Airport Information Weather charts Add Link Nearby VenuesMetar ALERT Operation Metar Decoded Social comments

AIRNAV info for KCUT